createdAt,value
2023-05-02T00:01:50.651Z,10.52
2023-05-02T00:04:18.634Z,9.00
2023-05-02T00:06:47.117Z,9.27
2023-05-02T00:09:15.661Z,10.63
2023-05-02T00:11:43.586Z,9.60
2023-05-02T00:14:11.424Z,9.67
2023-05-02T00:16:40.511Z,10.27
2023-05-02T00:19:08.277Z,9.00
2023-05-02T00:21:36.152Z,7.30
2023-05-02T00:24:03.971Z,8.13
2023-05-02T00:26:31.719Z,9.13
2023-05-02T00:28:59.437Z,7.45
2023-05-02T00:31:27.246Z,13.07
2023-05-02T00:33:57.173Z,12.73
2023-05-02T00:36:24.948Z,7.95
2023-05-02T00:38:52.648Z,9.30
2023-05-02T00:41:20.497Z,9.30
2023-05-02T00:43:48.208Z,8.40
2023-05-02T00:46:16.001Z,10.63
2023-05-02T00:48:45.230Z,10.65
2023-05-02T00:51:14.335Z,10.77
2023-05-02T00:53:42.222Z,8.50
2023-05-02T00:56:10.065Z,7.45
2023-05-02T00:58:39.907Z,6.93
2023-05-02T01:01:23.467Z,8.40
2023-05-02T01:04:02.280Z,8.40
2023-05-02T01:06:41.178Z,8.03
2023-05-02T01:09:21.350Z,8.37
2023-05-02T01:11:57.863Z,12.10
2023-05-02T01:14:27.772Z,14.02
2023-05-02T01:16:58.064Z,8.10
2023-05-02T01:19:30.521Z,7.87
2023-05-02T01:22:03.159Z,8.90
2023-05-02T01:24:36.844Z,8.73
2023-05-02T01:27:25.834Z,10.13
2023-05-02T01:29:59.180Z,8.88
2023-05-02T01:32:30.964Z,7.85
2023-05-02T01:35:00.072Z,9.10
2023-05-02T01:37:30.247Z,7.72
2023-05-02T01:40:00.451Z,9.27
2023-05-02T01:42:29.302Z,8.07
2023-05-02T01:45:00.936Z,8.00
2023-05-02T01:47:31.435Z,8.80
2023-05-02T01:50:00.884Z,7.43
2023-05-02T01:52:30.442Z,8.50
2023-05-02T01:55:00.410Z,7.57
2023-05-02T01:57:28.539Z,10.98
2023-05-02T02:00:00.217Z,9.35
2023-05-02T02:02:30.074Z,8.60
2023-05-02T02:05:00.681Z,8.90
2023-05-02T02:07:28.408Z,8.32
2023-05-02T02:09:56.240Z,10.70
2023-05-02T02:12:28.138Z,8.70
2023-05-02T02:15:01.836Z,9.10
2023-05-02T02:17:37.776Z,11.10
2023-05-02T02:20:09.588Z,9.53
2023-05-02T02:22:40.459Z,9.05
2023-05-02T02:25:12.132Z,10.43
2023-05-02T02:27:40.603Z,11.38
2023-05-02T02:30:10.707Z,7.95
2023-05-02T02:32:38.383Z,8.25
2023-05-02T02:35:07.605Z,10.70
2023-05-02T02:37:38.758Z,9.23
2023-05-02T02:40:11.046Z,14.48
2023-05-02T02:42:45.751Z,7.60
2023-05-02T02:45:27.724Z,10.75
2023-05-02T02:48:03.885Z,9.20
2023-05-02T02:50:34.090Z,8.63
2023-05-02T02:53:04.548Z,10.82
2023-05-02T02:55:39.650Z,10.38
2023-05-02T02:58:18.575Z,9.52
2023-05-02T03:00:49.190Z,8.43
2023-05-02T03:03:17.296Z,9.38
2023-05-02T03:05:45.481Z,9.07
2023-05-02T03:08:13.719Z,9.20
2023-05-02T03:10:41.407Z,10.95
2023-05-02T03:13:09.106Z,9.23
2023-05-02T03:16:18.659Z,11.45
2023-05-02T03:18:46.493Z,9.48
2023-05-02T03:21:14.263Z,10.30
2023-05-02T03:23:41.949Z,9.73
2023-05-02T03:26:09.700Z,8.95
2023-05-02T03:28:37.370Z,11.45
2023-05-02T03:31:05.208Z,10.65
2023-05-02T03:33:34.390Z,10.77
2023-05-02T03:36:02.148Z,9.77
2023-05-02T03:38:30.696Z,9.25
2023-05-02T03:40:58.531Z,8.40
2023-05-02T03:43:26.547Z,8.38
2023-05-02T03:45:54.274Z,9.30
2023-05-02T03:48:22.026Z,8.32
2023-05-02T03:50:51.468Z,10.27
2023-05-02T03:53:19.296Z,11.40
2023-05-02T03:55:47.356Z,11.00
2023-05-02T03:58:15.126Z,9.40
2023-05-02T04:00:42.852Z,9.57
2023-05-02T04:03:10.779Z,10.40
2023-05-02T04:05:38.772Z,9.15
2023-05-02T04:08:07.936Z,10.18
2023-05-02T04:10:35.728Z,12.90
2023-05-02T04:13:04.195Z,9.07
2023-05-02T04:15:32.628Z,9.38
2023-05-02T04:18:00.462Z,7.33
2023-05-02T04:20:28.389Z,9.57
2023-05-02T04:22:56.076Z,10.50
2023-05-02T04:25:25.270Z,15.20
2023-05-02T04:27:52.989Z,10.88
2023-05-02T04:30:21.056Z,13.07
2023-05-02T04:32:48.804Z,10.20
2023-05-02T04:35:17.452Z,8.67
2023-05-02T04:37:45.340Z,9.45
2023-05-02T04:40:14.381Z,11.20
2023-05-02T04:42:43.547Z,12.35
2023-05-02T04:45:11.359Z,11.20
2023-05-02T04:47:40.127Z,10.50
2023-05-02T04:50:09.379Z,9.10
2023-05-02T04:52:37.096Z,10.40
2023-05-02T04:55:05.489Z,9.27
2023-05-02T04:57:33.238Z,11.18
2023-05-02T05:00:02.498Z,9.40
2023-05-02T05:02:30.560Z,11.10
2023-05-02T05:04:58.567Z,10.45
2023-05-02T05:07:26.496Z,13.30
2023-05-02T05:09:54.242Z,10.10
2023-05-02T05:12:22.051Z,20.02
2023-05-02T05:14:49.970Z,14.23
2023-05-02T05:17:19.289Z,12.20
2023-05-02T05:19:47.043Z,9.60
2023-05-02T05:22:15.655Z,9.47
2023-05-02T05:24:43.521Z,9.20
2023-05-02T05:27:11.571Z,17.83
2023-05-02T05:29:39.254Z,10.57
2023-05-02T05:32:07.122Z,11.37
2023-05-02T05:34:36.429Z,10.30
2023-05-02T05:37:04.468Z,13.53
2023-05-02T05:39:32.633Z,10.47
2023-05-02T05:42:00.723Z,12.70
2023-05-02T05:44:28.418Z,11.13
2023-05-02T05:46:56.395Z,11.13
2023-05-02T05:49:24.999Z,9.80
2023-05-02T05:51:54.176Z,11.53
2023-05-02T05:54:21.966Z,10.53
2023-05-02T05:56:49.682Z,17.23
2023-05-02T05:59:17.509Z,12.93
2023-05-02T06:01:45.592Z,13.60
2023-05-02T06:04:13.539Z,12.30
2023-05-02T06:06:41.605Z,11.50
2023-05-02T06:09:10.750Z,13.60
2023-05-02T06:11:38.759Z,16.10
2023-05-02T06:14:06.629Z,12.90
2023-05-02T06:16:34.593Z,13.50
2023-05-02T06:19:02.405Z,17.00
2023-05-02T06:21:31.363Z,16.37
2023-05-02T06:23:59.229Z,12.80
2023-05-02T06:26:28.414Z,15.80
2023-05-02T06:28:56.489Z,15.83
2023-05-02T06:31:24.759Z,14.50
2023-05-02T06:33:52.781Z,17.93
2023-05-02T06:36:20.908Z,16.67
2023-05-02T06:38:48.980Z,22.63
2023-05-02T06:41:18.359Z,16.87
2023-05-02T06:43:47.534Z,21.70
2023-05-02T06:46:15.370Z,20.83
2023-05-02T06:48:43.143Z,19.80
2023-05-02T06:51:11.075Z,19.67
2023-05-02T06:53:38.750Z,23.37
2023-05-02T06:56:07.418Z,20.47
2023-05-02T06:58:35.205Z,21.00
2023-05-02T07:01:04.445Z,20.57
2023-05-02T07:03:33.090Z,21.30
2023-05-02T07:06:00.942Z,24.73
2023-05-02T07:08:28.704Z,19.17
2023-05-02T07:10:56.382Z,23.03
2023-05-02T07:13:24.190Z,24.03
2023-05-02T07:15:52.016Z,20.50
2023-05-02T07:18:21.304Z,25.37
2023-05-02T07:20:49.176Z,26.43
2023-05-02T07:23:18.060Z,26.70
2023-05-02T07:25:45.953Z,25.80
2023-05-02T07:28:13.767Z,26.80
2023-05-02T07:30:41.561Z,24.93
2023-05-02T07:33:09.511Z,23.83
2023-05-02T07:35:38.623Z,24.30
2023-05-02T07:38:06.328Z,25.37
2023-05-02T07:40:34.070Z,25.90
2023-05-02T07:43:02.707Z,22.53
2023-05-02T07:45:30.693Z,25.03
2023-05-02T07:47:58.633Z,28.37
2023-05-02T07:50:27.229Z,27.90
2023-05-02T07:52:57.137Z,25.50
2023-05-02T07:55:26.539Z,29.60
2023-05-02T07:57:54.299Z,26.50
2023-05-02T08:00:22.318Z,25.03
2023-05-02T08:02:50.155Z,24.87
2023-05-02T08:05:18.487Z,25.20
2023-05-02T08:07:47.003Z,30.70
2023-05-02T08:10:16.150Z,27.80
2023-05-02T08:12:43.974Z,27.10
2023-05-02T08:15:13.944Z,28.70
2023-05-02T08:17:41.727Z,25.80
2023-05-02T08:20:10.264Z,33.43
2023-05-02T08:22:38.106Z,32.50
2023-05-02T08:25:06.521Z,36.33
2023-05-02T08:27:35.916Z,35.97
2023-05-02T08:30:04.062Z,36.40
2023-05-02T08:32:33.446Z,32.00
2023-05-02T08:35:01.447Z,32.67
2023-05-02T08:37:29.139Z,32.77
2023-05-02T08:39:56.928Z,29.90
2023-05-02T08:42:25.104Z,31.07
2023-05-02T08:44:54.327Z,28.03
2023-05-02T08:47:23.549Z,29.67
2023-05-02T08:49:52.967Z,32.60
2023-05-02T08:52:22.166Z,27.77
2023-05-02T08:54:51.587Z,30.57
2023-05-02T08:57:19.440Z,36.30
2023-05-02T08:59:48.668Z,30.10
2023-05-02T09:02:30.738Z,30.13
2023-05-02T09:05:07.477Z,28.23
2023-05-02T09:07:46.313Z,31.40
2023-05-02T09:10:14.509Z,30.47
2023-05-02T09:12:42.461Z,27.97
2023-05-02T09:15:11.142Z,29.57
2023-05-02T09:17:48.138Z,32.77
2023-05-02T09:20:17.599Z,26.93
2023-05-02T09:22:52.522Z,26.60
2023-05-02T09:25:21.572Z,27.70
2023-05-02T09:27:56.398Z,27.57
2023-05-02T09:30:25.760Z,30.53
2023-05-02T09:32:56.236Z,30.60
2023-05-02T09:35:27.582Z,31.17
2023-05-02T09:37:56.904Z,28.80
2023-05-02T09:40:25.877Z,28.33
2023-05-02T09:42:54.056Z,26.03
2023-05-02T09:45:26.237Z,33.50
2023-05-02T09:47:55.447Z,25.03
2023-05-02T09:50:39.919Z,31.20
2023-05-02T09:53:09.557Z,30.20
2023-05-02T09:55:37.828Z,27.33
2023-05-02T09:58:07.090Z,25.43
2023-05-02T10:00:54.955Z,26.87
2023-05-02T10:03:26.054Z,26.97
2023-05-02T10:05:55.174Z,26.60
2023-05-02T10:08:24.182Z,30.50
2023-05-02T10:10:54.990Z,32.27
2023-05-02T10:13:27.127Z,32.30
2023-05-02T10:16:01.706Z,30.80
2023-05-02T10:18:41.997Z,33.13
2023-05-02T10:21:12.524Z,34.43
2023-05-02T10:23:44.306Z,33.40
2023-05-02T10:26:15.904Z,36.13
2023-05-02T10:28:44.351Z,32.30
2023-05-02T10:31:12.662Z,30.43
2023-05-02T10:33:42.255Z,34.47
2023-05-02T10:36:13.097Z,26.73
2023-05-02T10:38:42.171Z,32.60
2023-05-02T10:41:14.699Z,31.30
2023-05-02T10:43:47.077Z,30.43
2023-05-02T10:46:34.992Z,30.83
2023-05-02T10:49:06.537Z,27.50
2023-05-02T10:51:35.006Z,28.87
2023-05-02T10:54:25.032Z,29.50
2023-05-02T10:57:06.828Z,24.40
2023-05-02T10:59:36.485Z,27.67
2023-05-02T11:02:06.967Z,21.70
2023-05-02T11:05:03.236Z,23.13
2023-05-02T11:07:32.358Z,22.67
2023-05-02T11:10:26.374Z,26.70
2023-05-02T11:12:55.262Z,22.33
2023-05-02T11:16:00.035Z,22.23
2023-05-02T11:18:27.878Z,21.17
2023-05-02T11:21:27.517Z,24.43
2023-05-02T11:24:39.510Z,19.20
2023-05-02T11:27:40.338Z,24.90
2023-05-02T11:30:09.773Z,23.07
2023-05-02T11:33:16.274Z,26.30
2023-05-02T11:35:46.867Z,25.53
2023-05-02T11:38:18.168Z,23.87
2023-05-02T11:40:53.528Z,22.07
2023-05-02T11:43:22.506Z,24.37
2023-05-02T11:45:50.514Z,27.70
2023-05-02T11:48:22.423Z,25.67
2023-05-02T11:50:52.637Z,26.07
2023-05-02T11:53:23.565Z,23.93
2023-05-02T11:55:53.154Z,22.23
2023-05-02T11:58:22.191Z,25.93
2023-05-02T12:00:51.448Z,26.93
2023-05-02T12:03:28.170Z,28.27
2023-05-02T12:05:56.925Z,26.90
2023-05-02T12:08:28.781Z,27.13
2023-05-02T12:10:57.885Z,28.20
2023-05-02T12:13:27.586Z,26.80
2023-05-02T12:15:56.429Z,27.23
2023-05-02T12:18:27.037Z,22.80
2023-05-02T12:20:56.112Z,26.47
2023-05-02T12:23:27.472Z,26.00
2023-05-02T12:25:55.327Z,27.83
2023-05-02T12:28:24.189Z,27.33
2023-05-02T12:30:52.576Z,27.80
2023-05-02T12:33:20.418Z,29.67
2023-05-02T12:35:48.342Z,31.60
2023-05-02T12:38:17.716Z,30.80
2023-05-02T12:40:52.167Z,30.13
2023-05-02T12:43:21.925Z,36.00
2023-05-02T12:45:49.938Z,36.20
2023-05-02T12:48:22.541Z,32.40
2023-05-02T12:50:50.681Z,37.20
2023-05-02T12:53:18.769Z,39.63
2023-05-02T12:55:46.903Z,33.30
2023-05-02T12:58:17.187Z,36.17
2023-05-02T13:00:46.491Z,31.83
2023-05-02T13:03:15.584Z,33.97
2023-05-02T13:05:43.389Z,32.97
2023-05-02T13:08:11.182Z,34.77
2023-05-02T13:10:38.867Z,30.10
2023-05-02T13:13:07.538Z,32.97
2023-05-02T13:15:36.792Z,36.17
2023-05-02T13:18:05.111Z,30.60
2023-05-02T13:20:32.986Z,33.00
2023-05-02T13:23:00.703Z,36.43
2023-05-02T13:25:28.506Z,31.63
2023-05-02T13:27:56.251Z,33.90
2023-05-02T13:30:24.475Z,28.50
2023-05-02T13:32:53.706Z,25.43
2023-05-02T13:35:21.663Z,28.90
2023-05-02T13:37:49.364Z,25.37
2023-05-02T13:40:17.249Z,24.50
2023-05-02T13:42:45.816Z,29.03
2023-05-02T13:45:14.692Z,27.63
2023-05-02T13:47:42.548Z,35.73
2023-05-02T13:50:12.462Z,36.03
2023-05-02T13:52:40.302Z,30.33
2023-05-02T13:55:08.614Z,22.37
2023-05-02T13:57:36.374Z,31.87
2023-05-02T14:00:05.315Z,24.43
2023-05-02T14:02:33.420Z,23.37
2023-05-02T14:05:01.265Z,24.10
2023-05-02T14:07:32.651Z,22.40
2023-05-02T14:10:00.794Z,23.47
2023-05-02T14:12:29.073Z,21.77
2023-05-02T14:14:56.824Z,27.70
2023-05-02T14:17:25.560Z,24.87
2023-05-02T14:19:53.559Z,27.33
2023-05-02T14:22:21.244Z,24.00
2023-05-02T14:24:50.393Z,20.43
2023-05-02T14:27:18.922Z,17.30
2023-05-02T14:29:46.734Z,19.40
2023-05-02T14:32:14.944Z,14.60
2023-05-02T14:34:42.647Z,16.60
2023-05-02T14:37:10.355Z,15.23
2023-05-02T14:39:39.073Z,14.40
2023-05-02T14:42:08.228Z,15.70
2023-05-02T14:44:36.096Z,15.87
2023-05-02T14:47:03.968Z,14.27
2023-05-02T14:49:31.755Z,15.33
2023-05-02T14:51:59.489Z,18.53
2023-05-02T14:54:28.304Z,14.13
2023-05-02T14:56:56.873Z,16.83
2023-05-02T14:59:26.428Z,17.77
2023-05-02T15:01:54.256Z,15.17
2023-05-02T15:04:22.511Z,18.30
2023-05-02T15:06:53.788Z,23.73
2023-05-02T15:09:21.658Z,12.70
2023-05-02T15:11:49.358Z,15.90
2023-05-02T15:14:17.131Z,15.47
2023-05-02T15:16:46.284Z,19.77
2023-05-02T15:19:14.164Z,22.00
2023-05-02T15:21:42.106Z,20.53
2023-05-02T15:24:10.671Z,16.57
2023-05-02T15:26:40.450Z,19.13
2023-05-02T15:29:08.362Z,17.80
2023-05-02T15:31:36.426Z,14.17
2023-05-02T15:34:05.627Z,17.00
2023-05-02T15:36:37.324Z,15.00
2023-05-02T15:39:05.160Z,14.23
2023-05-02T15:41:33.053Z,14.03
2023-05-02T15:44:01.590Z,15.93
2023-05-02T15:46:29.535Z,15.87
2023-05-02T15:48:57.344Z,16.73
2023-05-02T15:51:27.139Z,20.13
2023-05-02T15:53:55.230Z,12.27
2023-05-02T15:56:23.163Z,12.33
2023-05-02T15:58:50.934Z,13.57
2023-05-02T16:01:21.059Z,11.63
2023-05-02T16:03:48.911Z,9.87
2023-05-02T16:06:17.565Z,11.20
2023-05-02T16:08:46.848Z,9.47
2023-05-02T16:11:14.662Z,11.20
2023-05-02T16:13:42.359Z,10.83
2023-05-02T16:16:10.198Z,10.57
2023-05-02T16:18:37.966Z,9.73
2023-05-02T16:21:06.690Z,10.53
2023-05-02T16:23:34.628Z,8.33
2023-05-02T16:26:03.832Z,8.20
2023-05-02T16:28:31.541Z,6.83
2023-05-02T16:30:59.271Z,5.77
2023-05-02T16:33:26.961Z,6.70
2023-05-02T16:36:01.700Z,5.70
2023-05-02T16:38:29.434Z,7.20
2023-05-02T16:40:57.334Z,10.43
2023-05-02T16:43:26.728Z,7.50
2023-05-02T16:46:01.911Z,5.93
2023-05-02T16:48:29.938Z,6.00
2023-05-02T16:50:58.061Z,6.70
2023-05-02T16:53:26.739Z,5.70
2023-05-02T16:55:54.935Z,6.70
2023-05-02T16:58:24.702Z,4.30
2023-05-02T17:00:53.854Z,5.00
2023-05-02T17:03:21.952Z,4.97
2023-05-02T17:05:49.780Z,4.73
2023-05-02T17:08:17.910Z,3.60
2023-05-02T17:10:49.904Z,4.20
2023-05-02T17:13:17.918Z,6.10
2023-05-02T17:15:46.480Z,6.87
2023-05-02T17:18:15.748Z,5.90
2023-05-02T17:20:45.176Z,5.90
2023-05-02T17:23:14.540Z,4.07
2023-05-02T17:25:42.706Z,4.50
2023-05-02T17:28:10.588Z,3.53
2023-05-02T17:30:38.459Z,4.67
2023-05-02T17:33:07.320Z,3.63
2023-05-02T17:35:36.586Z,4.43
2023-05-02T17:38:04.922Z,4.07
2023-05-02T17:40:34.132Z,4.97
2023-05-02T17:43:03.252Z,5.57
2023-05-02T17:45:31.850Z,4.33
2023-05-02T17:48:01.940Z,5.27
2023-05-02T17:50:30.825Z,3.90
2023-05-02T17:53:00.684Z,3.37
2023-05-02T17:55:29.062Z,6.00
2023-05-02T17:57:58.843Z,5.43
2023-05-02T18:00:26.673Z,6.27
2023-05-02T18:02:55.681Z,5.30
2023-05-02T18:05:23.888Z,5.67
2023-05-02T18:07:52.457Z,7.57
2023-05-02T18:10:21.716Z,5.30
2023-05-02T18:12:51.969Z,6.50
2023-05-02T18:15:19.986Z,9.53
2023-05-02T18:17:47.882Z,5.90
2023-05-02T18:20:15.803Z,6.40
2023-05-02T18:22:51.616Z,8.13
2023-05-02T18:25:21.458Z,8.43
2023-05-02T18:27:49.256Z,8.30
2023-05-02T18:30:17.116Z,9.20
2023-05-02T18:32:44.903Z,8.37
2023-05-02T18:35:12.756Z,7.80
2023-05-02T18:37:41.181Z,7.73
2023-05-02T18:40:10.075Z,9.00
2023-05-02T18:42:39.210Z,7.83
2023-05-02T18:45:08.224Z,6.73
2023-05-02T18:47:36.998Z,7.87
2023-05-02T18:50:06.019Z,10.80
2023-05-02T18:52:33.942Z,7.00
2023-05-02T18:55:03.134Z,8.60
2023-05-02T18:57:31.327Z,9.03
2023-05-02T19:00:00.697Z,7.87
2023-05-02T19:02:28.565Z,9.37
2023-05-02T19:04:57.245Z,6.93
2023-05-02T19:07:25.129Z,10.00
2023-05-02T19:09:53.423Z,8.87
2023-05-02T19:12:21.147Z,10.00
2023-05-02T19:14:50.411Z,9.77
2023-05-02T19:17:19.750Z,8.93
2023-05-02T19:19:48.130Z,10.53
2023-05-02T19:22:15.951Z,10.23
2023-05-02T19:24:43.680Z,10.47
2023-05-02T19:27:11.625Z,13.80
2023-05-02T19:29:39.638Z,8.70
2023-05-02T19:32:07.368Z,8.33
2023-05-02T19:34:37.661Z,12.20
2023-05-02T19:37:05.603Z,10.93
2023-05-02T19:39:33.922Z,8.40
2023-05-02T19:42:03.059Z,13.93
2023-05-02T19:44:31.189Z,12.17
2023-05-02T19:46:59.139Z,9.70
2023-05-02T19:49:27.012Z,8.67
2023-05-02T19:51:56.113Z,11.67
2023-05-02T19:54:24.022Z,9.67
2023-05-02T19:56:51.908Z,11.93
2023-05-02T19:59:19.859Z,16.53
2023-05-02T20:01:48.084Z,10.67
2023-05-02T20:04:16.254Z,11.73
2023-05-02T20:06:44.080Z,8.00
2023-05-02T20:09:13.610Z,10.03
2023-05-02T20:11:42.041Z,10.87
2023-05-02T20:14:10.031Z,9.13
2023-05-02T20:16:38.217Z,9.83
2023-05-02T20:19:06.033Z,13.20
2023-05-02T20:21:33.712Z,12.43
2023-05-02T20:24:01.367Z,11.50
2023-05-02T20:26:33.673Z,8.50
2023-05-02T20:29:03.334Z,8.50
2023-05-02T20:31:31.180Z,10.17
2023-05-02T20:34:00.156Z,8.87
2023-05-02T20:36:29.615Z,10.30
2023-05-02T20:38:58.016Z,11.93
2023-05-02T20:41:26.797Z,12.30
2023-05-02T20:43:57.314Z,13.40
2023-05-02T20:46:25.258Z,13.97
2023-05-02T20:48:53.771Z,15.23
2023-05-02T20:51:22.291Z,10.20
2023-05-02T20:53:49.946Z,12.70
2023-05-02T20:56:17.751Z,10.53
2023-05-02T20:58:45.403Z,9.93
2023-05-02T21:01:14.637Z,7.70
2023-05-02T21:03:42.500Z,12.33
2023-05-02T21:06:10.340Z,11.60
2023-05-02T21:08:38.148Z,10.97
2023-05-02T21:11:13.786Z,8.87
2023-05-02T21:13:41.809Z,9.27
2023-05-02T21:16:20.987Z,11.13
2023-05-02T21:18:49.466Z,9.20
2023-05-02T21:21:17.219Z,9.73
2023-05-02T21:23:45.039Z,9.93
2023-05-02T21:26:12.933Z,10.73
2023-05-02T21:28:40.711Z,10.97
2023-05-02T21:31:08.835Z,9.00
2023-05-02T21:33:38.099Z,10.67
2023-05-02T21:36:06.089Z,8.70
2023-05-02T21:38:34.130Z,9.90
2023-05-02T21:41:03.606Z,7.97
2023-05-02T21:43:32.781Z,9.47
2023-05-02T21:46:00.476Z,8.73
2023-05-02T21:48:28.424Z,11.17
2023-05-02T21:50:57.599Z,9.27
2023-05-02T21:53:27.027Z,7.43
2023-05-02T21:55:54.749Z,11.50
2023-05-02T21:58:22.622Z,9.43
2023-05-02T22:00:50.404Z,9.70
2023-05-02T22:03:20.229Z,9.67
2023-05-02T22:05:49.915Z,14.03
2023-05-02T22:08:20.433Z,10.47
2023-05-02T22:10:48.232Z,9.87
2023-05-02T22:13:16.464Z,7.60
2023-05-02T22:15:45.527Z,10.10
2023-05-02T22:18:13.951Z,10.90
2023-05-02T22:20:42.013Z,9.60
2023-05-02T22:23:10.325Z,12.23
2023-05-02T22:25:41.470Z,13.00
2023-05-02T22:28:11.497Z,9.93
2023-05-02T22:30:39.888Z,10.27
2023-05-02T22:33:08.450Z,12.70
2023-05-02T22:35:37.258Z,12.80
2023-05-02T22:38:05.810Z,9.73
2023-05-02T22:40:34.116Z,11.20
2023-05-02T22:43:03.268Z,11.33
2023-05-02T22:45:31.235Z,13.83
2023-05-02T22:47:59.100Z,11.07
2023-05-02T22:50:27.506Z,10.73
2023-05-02T22:52:56.847Z,10.27
2023-05-02T22:55:24.959Z,11.97
2023-05-02T22:57:53.102Z,9.53
2023-05-02T23:00:23.566Z,10.97
2023-05-02T23:02:51.413Z,10.53
2023-05-02T23:05:19.506Z,10.43
2023-05-02T23:07:47.551Z,11.93
2023-05-02T23:10:15.755Z,11.97
2023-05-02T23:12:43.484Z,11.77
2023-05-02T23:15:11.828Z,15.40
2023-05-02T23:17:42.047Z,12.40
2023-05-02T23:20:11.353Z,10.20
2023-05-02T23:22:45.329Z,8.60
2023-05-02T23:25:13.982Z,10.63
2023-05-02T23:27:41.659Z,9.67
2023-05-02T23:30:10.408Z,9.73
2023-05-02T23:32:39.425Z,11.00
2023-05-02T23:35:11.746Z,7.83
2023-05-02T23:37:39.939Z,11.13
2023-05-02T23:40:09.840Z,9.07
2023-05-02T23:42:40.559Z,9.10
2023-05-02T23:45:09.021Z,10.63
2023-05-02T23:47:37.778Z,7.20
2023-05-02T23:50:06.319Z,9.23
2023-05-02T23:52:35.513Z,6.63
2023-05-02T23:55:03.324Z,11.00
2023-05-02T23:57:31.164Z,11.27
2023-05-02T23:59:58.793Z,7.93
